Time;durP1;ratioP1;P1;durP2;ratioP2;P2;SDS_P1;SDS_P2;PMS_P1;PMS_P2;Temp;Humidity;BMP_temperature;BMP_pressure;BME280_temperature;BME280_humidity;BME280_pressure;Samples;Min_cycle;Max_cycle;Signal;HPM_P1;HPM_P2
2020/12/03 00:00:38;;;;;;;72.93;46.97;;;0.80;98.30;;;;;;5140081;23;20237;-80
2020/12/03 00:02:40;;;;;;;70.90;45.60;;;0.80;98.30;;;;;;5148657;23;20201;-80
2020/12/03 00:04:44;;;;;;;77.80;47.85;;;0.70;98.30;;;;;;5148801;23;20229;-80
2020/12/03 00:06:52;;;;;;;70.95;45.88;;;0.70;98.30;;;;;;5140273;23;20215;-80
2020/12/03 00:08:58;;;;;;;69.88;45.63;;;0.70;98.30;;;;;;5148670;23;20205;-80
2020/12/03 00:11:00;;;;;;;78.97;48.25;;;0.60;98.30;;;;;;5140467;23;20201;-80
2020/12/03 00:13:10;;;;;;;73.25;45.30;;;0.60;98.30;;;;;;5149123;23;20201;-80
2020/12/03 00:15:12;;;;;;;77.82;48.42;;;0.70;98.30;;;;;;5140979;23;20691;-80
2020/12/03 00:17:14;;;;;;;70.63;45.38;;;0.70;98.30;;;;;;5149039;23;20194;-80
2020/12/03 00:19:19;;;;;;;75.45;47.40;;;0.70;98.30;;;;;;5149409;23;20723;-81
2020/12/03 00:21:31;;;;;;;73.80;45.80;;;0.80;98.30;;;;;;5148961;23;20203;-80
2020/12/03 00:23:33;;;;;;;76.28;48.63;;;0.80;98.30;;;;;;5140944;23;20229;-80
2020/12/03 00:25:35;;;;;;;71.80;45.75;;;0.80;98.30;;;;;;5148657;23;20221;-80
2020/12/03 00:27:38;;;;;;;79.82;48.17;;;0.80;98.30;;;;;;5140784;23;20679;-80
2020/12/03 00:29:40;;;;;;;77.20;47.17;;;0.90;98.30;;;;;;5140270;23;20229;-80
2020/12/03 00:31:43;;;;;;;77.90;47.47;;;0.80;98.30;;;;;;5148597;23;20201;-81
2020/12/03 00:33:45;;;;;;;77.78;46.28;;;0.70;98.30;;;;;;5140206;23;20216;-81
2020/12/03 00:35:47;;;;;;;68.82;44.50;;;0.70;98.30;;;;;;5140625;23;20569;-80
2020/12/03 00:37:50;;;;;;;75.53;45.65;;;0.70;98.30;;;;;;5148768;23;20205;-80
2020/12/03 00:39:52;;;;;;;73.47;46.75;;;0.60;98.30;;;;;;5149464;23;20212;-80
2020/12/03 00:41:55;;;;;;;66.20;44.95;;;0.60;98.30;;;;;;5140820;23;20210;-80
2020/12/03 00:43:57;;;;;;;78.18;47.38;;;0.70;98.30;;;;;;5148727;23;20205;-80
2020/12/03 00:45:59;;;;;;;72.82;46.17;;;0.70;98.30;;;;;;5141622;23;20202;-81
2020/12/03 00:48:01;;;;;;;70.72;44.85;;;0.70;98.30;;;;;;5149566;23;20213;-80
2020/12/03 00:50:04;;;;;;;73.03;45.95;;;0.60;98.30;;;;;;5141600;23;20237;-81
2020/12/03 00:52:06;;;;;;;75.90;45.83;;;0.60;98.30;;;;;;5150444;23;20201;-80
2020/12/03 00:54:09;;;;;;;76.70;48.70;;;0.70;98.30;;;;;;5141916;23;20213;-81
2020/12/03 00:56:11;;;;;;;80.28;48.80;;;0.70;98.30;;;;;;5142149;23;20289;-81
2020/12/03 00:58:14;;;;;;;73.32;46.85;;;0.60;98.30;;;;;;5149863;23;20198;-81
2020/12/03 01:00:20;;;;;;;76.85;45.70;;;0.60;98.30;;;;;;5141878;23;20210;-81
2020/12/03 01:02:25;;;;;;;75.30;47.42;;;0.60;98.30;;;;;;5141948;23;20208;-81
2020/12/03 01:04:28;;;;;;;69.80;44.78;;;0.50;98.30;;;;;;5149571;23;20211;-82
2020/12/03 01:06:30;;;;;;;79.72;48.15;;;0.60;98.30;;;;;;5150202;23;20208;-81
2020/12/03 01:08:32;;;;;;;78.20;47.10;;;0.70;98.30;;;;;;5141648;23;20581;-81
2020/12/03 01:10:35;;;;;;;72.60;48.42;;;0.70;98.30;;;;;;5149924;23;20225;-80
2020/12/03 01:12:37;;;;;;;79.03;47.45;;;0.70;98.30;;;;;;5150239;23;20210;-80
2020/12/03 01:14:40;;;;;;;71.70;45.78;;;0.60;98.30;;;;;;5141866;23;20283;-80
2020/12/03 01:16:42;;;;;;;81.22;47.10;;;0.60;98.30;;;;;;5124987;23;20212;-81
2020/12/03 01:18:44;;;;;;;76.63;45.35;;;0.70;98.30;;;;;;5116216;23;20255;-80
2020/12/03 01:20:46;;;;;;;79.10;47.88;;;0.70;98.30;;;;;;5116652;23;20248;-81
2020/12/03 01:22:48;;;;;;;74.72;46.15;;;0.60;98.30;;;;;;5116323;23;20565;-80
2020/12/03 01:24:50;;;;;;;69.53;45.25;;;0.60;98.30;;;;;;5126093;23;20273;-80
2020/12/03 01:26:52;;;;;;;73.50;45.97;;;0.60;98.30;;;;;;5117617;23;20286;-81
2020/12/03 01:28:53;;;;;;;77.10;48.50;;;0.50;98.30;;;;;;5116628;23;20207;-81
2020/12/03 01:30:56;;;;;;;79.32;49.95;;;0.60;98.30;;;;;;5116257;23;20218;-81
2020/12/03 01:32:58;;;;;;;75.55;45.65;;;0.60;98.30;;;;;;5116287;23;20207;-80
2020/12/03 01:35:00;;;;;;;72.07;45.58;;;0.60;98.30;;;;;;5117151;23;20207;-80
2020/12/03 01:37:02;;;;;;;76.45;46.40;;;0.60;98.30;;;;;;5124154;23;20574;-80
2020/12/03 01:39:05;;;;;;;72.93;44.50;;;0.80;98.30;;;;;;5123541;23;20237;-80
2020/12/03 01:41:07;;;;;;;69.95;44.95;;;0.80;98.30;;;;;;5116811;23;20683;-81
2020/12/03 01:43:09;;;;;;;75.03;47.25;;;0.70;98.30;;;;;;5125704;23;20229;-80
2020/12/03 01:45:46;;;;;;;76.47;48.20;;;0.70;98.30;;;;;;5117203;23;20207;-80
2020/12/03 01:47:50;;;;;;;69.80;44.85;;;0.70;98.30;;;;;;5125256;23;20213;-80
2020/12/03 01:49:52;;;;;;;72.45;45.50;;;0.70;98.30;;;;;;5117556;23;20238;-81
2020/12/03 01:51:55;;;;;;;75.85;45.42;;;0.80;98.30;;;;;;5125043;23;20198;-80
2020/12/03 01:53:59;;;;;;;72.68;44.85;;;0.90;98.30;;;;;;5117623;23;20698;-80
2020/12/03 01:56:05;;;;;;;69.47;45.03;;;0.80;98.30;;;;;;5117730;23;20211;-80
2020/12/03 01:58:15;;;;;;;74.68;46.67;;;0.80;98.30;;;;;;5125005;23;20222;-80
2020/12/03 02:00:19;;;;;;;72.68;44.17;;;0.90;98.30;;;;;;5125076;23;20225;-80
2020/12/03 02:02:21;;;;;;;74.63;46.58;;;0.90;98.30;;;;;;5117484;23;20230;-80
2020/12/03 02:04:24;;;;;;;67.93;42.65;;;0.80;98.30;;;;;;5117472;23;20210;-80
2020/12/03 02:06:28;;;;;;;71.07;45.25;;;0.80;98.30;;;;;;5125603;23;20210;-80
2020/12/03 02:08:30;;;;;;;71.47;44.40;;;0.90;98.30;;;;;;5116900;23;20221;-80
2020/12/03 02:10:32;;;;;;;66.15;43.47;;;0.80;98.30;;;;;;5126140;23;20207;-80
2020/12/03 02:12:34;;;;;;;64.35;43.35;;;0.90;98.30;;;;;;5117453;23;20289;-81
2020/12/03 02:14:36;;;;;;;66.30;43.03;;;0.80;98.30;;;;;;5118126;23;20245;-81
2020/12/03 02:16:41;;;;;;;73.50;43.88;;;0.90;98.30;;;;;;5141704;23;20240;-80
2020/12/03 02:18:44;;;;;;;69.85;44.60;;;0.90;98.30;;;;;;5142335;23;20202;-80
2020/12/03 02:20:46;;;;;;;71.32;44.55;;;0.90;98.30;;;;;;5150355;23;20193;-80
2020/12/03 02:22:49;;;;;;;73.05;44.97;;;0.90;98.30;;;;;;5142181;23;20210;-80
2020/12/03 02:24:51;;;;;;;72.95;44.25;;;1.00;98.30;;;;;;5150983;23;20198;-80
2020/12/03 02:26:53;;;;;;;68.80;45.58;;;0.90;98.30;;;;;;5140384;23;20205;-80
2020/12/03 02:28:55;;;;;;;68.45;45.15;;;0.90;98.30;;;;;;5150349;23;20205;-80
2020/12/03 02:30:57;;;;;;;70.93;44.42;;;0.90;98.30;;;;;;5150489;23;20213;-81
2020/12/03 02:33:00;;;;;;;65.95;41.58;;;0.90;98.30;;;;;;5142689;23;20206;-80
2020/12/03 02:35:02;;;;;;;65.60;43.42;;;0.90;98.30;;;;;;5151219;23;20533;-79
2020/12/03 02:37:07;;;;;;;66.85;43.65;;;0.90;98.30;;;;;;5150498;23;20669;-81
2020/12/03 02:39:10;;;;;;;68.80;43.65;;;0.90;98.30;;;;;;5150656;23;20238;-81
2020/12/03 02:41:12;;;;;;;69.20;42.38;;;0.90;98.30;;;;;;5149641;23;20228;-81
2020/12/03 02:43:14;;;;;;;68.05;43.45;;;1.00;98.30;;;;;;5142196;23;20281;-81
2020/12/03 02:45:16;;;;;;;67.35;42.10;;;1.00;98.30;;;;;;5142011;23;20574;-80
2020/12/03 02:47:21;;;;;;;63.17;41.53;;;1.10;98.30;;;;;;5141941;23;20234;-80
2020/12/03 02:49:23;;;;;;;70.15;43.15;;;1.00;98.30;;;;;;5149972;23;20529;-80
2020/12/03 02:51:27;;;;;;;66.70;42.28;;;1.00;98.30;;;;;;5142205;23;20239;-80
2020/12/03 02:53:30;;;;;;;63.63;41.25;;;1.00;98.30;;;;;;5150397;23;20202;-81
2020/12/03 02:55:32;;;;;;;72.35;42.97;;;1.00;98.30;;;;;;5150175;23;20201;-80
2020/12/03 02:57:33;;;;;;;71.07;45.65;;;0.90;98.30;;;;;;5150215;23;20217;-80
2020/12/03 02:59:35;;;;;;;72.45;42.65;;;0.90;98.30;;;;;;5150278;23;20836;-81
2020/12/03 03:01:38;;;;;;;74.15;45.63;;;0.80;98.30;;;;;;5142392;23;20217;-80
2020/12/03 03:03:40;;;;;;;70.47;42.60;;;0.90;98.30;;;;;;5142191;23;20209;-79
2020/12/03 03:05:42;;;;;;;68.03;41.78;;;0.80;98.30;;;;;;5142119;23;20302;-80
2020/12/03 03:07:44;;;;;;;70.38;42.60;;;0.80;98.30;;;;;;5148996;23;20210;-79
2020/12/03 03:09:46;;;;;;;70.18;42.05;;;0.80;98.30;;;;;;5142071;23;20206;-80
2020/12/03 03:11:49;;;;;;;67.90;42.83;;;0.90;98.30;;;;;;5141656;23;20540;-80
2020/12/03 03:13:51;;;;;;;67.95;43.53;;;0.90;98.30;;;;;;5149355;23;21091;-80
2020/12/03 03:15:53;;;;;;;73.85;43.65;;;0.90;98.30;;;;;;5140328;23;20313;-80
2020/12/03 03:17:55;;;;;;;64.53;41.90;;;0.90;98.30;;;;;;5140226;23;20201;-80
2020/12/03 03:19:57;;;;;;;69.28;43.38;;;0.90;98.30;;;;;;5140876;23;20261;-80
2020/12/03 03:21:58;;;;;;;69.78;44.88;;;0.90;98.30;;;;;;5140529;23;20237;-80
2020/12/03 03:24:01;;;;;;;65.70;43.35;;;0.90;98.30;;;;;;5139710;23;20228;-80
2020/12/03 03:26:03;;;;;;;70.55;44.08;;;0.90;98.30;;;;;;5140271;23;20220;-80
2020/12/03 03:28:05;;;;;;;71.47;45.13;;;0.90;98.30;;;;;;5149637;23;20206;-81
2020/12/03 03:30:08;;;;;;;66.85;43.65;;;0.90;98.30;;;;;;5141833;23;20221;-81
2020/12/03 03:32:10;;;;;;;69.95;43.00;;;0.90;98.30;;;;;;5141366;23;20233;-81
2020/12/03 03:34:12;;;;;;;70.05;42.40;;;0.70;98.30;;;;;;5149747;23;20260;-81
2020/12/03 03:36:14;;;;;;;67.38;43.35;;;0.80;98.30;;;;;;5140963;23;20289;-80
2020/12/03 03:38:16;;;;;;;63.33;42.10;;;0.80;98.30;;;;;;5141679;23;20719;-80
2020/12/03 03:40:18;;;;;;;65.40;42.15;;;0.80;98.30;;;;;;5148972;23;20198;-81
2020/12/03 03:42:21;;;;;;;65.25;42.78;;;0.90;98.30;;;;;;5149614;23;20198;-80
2020/12/03 03:44:23;;;;;;;65.95;43.15;;;0.90;98.30;;;;;;5149281;23;20204;-81
2020/12/03 03:46:25;;;;;;;67.72;44.47;;;0.80;98.30;;;;;;5142571;23;20257;-80
2020/12/03 03:48:27;;;;;;;62.42;40.92;;;0.80;98.30;;;;;;5148723;23;20239;-80
2020/12/03 03:50:29;;;;;;;70.18;43.33;;;0.80;98.30;;;;;;5149755;23;20205;-81
2020/12/03 03:52:31;;;;;;;66.35;42.72;;;0.90;98.30;;;;;;5141009;23;20209;-81
2020/12/03 03:54:33;;;;;;;62.28;40.03;;;0.90;98.30;;;;;;5149768;23;20673;-80
2020/12/03 03:56:35;;;;;;;63.72;40.15;;;0.90;98.30;;;;;;5149761;23;20209;-80
2020/12/03 03:58:38;;;;;;;69.00;43.08;;;0.90;98.30;;;;;;5142289;23;20214;-80
2020/12/03 04:00:41;;;;;;;67.90;41.70;;;0.90;98.30;;;;;;5149091;23;20198;-80
2020/12/03 04:02:44;;;;;;;62.92;41.35;;;0.90;98.30;;;;;;5149264;23;20202;-80
2020/12/03 04:04:47;;;;;;;62.63;40.42;;;0.70;98.30;;;;;;5148667;23;20240;-80
2020/12/03 04:06:49;;;;;;;67.05;42.88;;;0.70;98.30;;;;;;5141040;23;20899;-81
2020/12/03 04:08:51;;;;;;;66.20;40.95;;;0.70;98.30;;;;;;5149015;23;20205;-81
2020/12/03 04:10:53;;;;;;;67.97;43.40;;;0.70;98.30;;;;;;5148813;23;20513;-80
2020/12/03 04:12:55;;;;;;;66.07;42.40;;;0.80;98.30;;;;;;5149447;23;20714;-81
2020/12/03 04:15:00;;;;;;;64.97;42.38;;;0.90;98.30;;;;;;5150068;23;20228;-81
2020/12/03 04:17:02;;;;;;;63.72;41.95;;;0.90;98.30;;;;;;5150408;23;20215;-81
2020/12/03 04:19:04;;;;;;;65.60;42.10;;;0.90;98.30;;;;;;5150171;23;20205;-81
2020/12/03 04:21:08;;;;;;;60.85;39.63;;;0.80;98.30;;;;;;5149653;23;20201;-81
2020/12/03 04:23:11;;;;;;;63.88;42.47;;;0.70;98.30;;;;;;5142254;23;20206;-81
2020/12/03 04:25:14;;;;;;;64.95;41.88;;;0.70;98.30;;;;;;5150656;23;20204;-81
2020/12/03 04:27:16;;;;;;;63.72;40.85;;;0.80;98.30;;;;;;5150212;23;20252;-80
2020/12/03 04:29:18;;;;;;;68.80;43.92;;;0.80;98.30;;;;;;5142093;23;20214;-81
2020/12/03 04:31:21;;;;;;;66.45;40.20;;;0.90;98.30;;;;;;5150370;23;20229;-81
2020/12/03 04:33:24;;;;;;;58.80;41.03;;;0.90;98.30;;;;;;5142203;23;20202;-81
2020/12/03 04:35:26;;;;;;;68.13;41.85;;;0.80;98.30;;;;;;5150806;23;20198;-81
2020/12/03 04:37:28;;;;;;;63.35;42.45;;;0.90;98.30;;;;;;5142231;23;20217;-81
2020/12/03 04:39:29;;;;;;;57.58;38.72;;;1.00;98.30;;;;;;5142028;23;20277;-81
2020/12/03 04:41:31;;;;;;;59.50;40.85;;;0.90;98.30;;;;;;5141625;23;20281;-81
2020/12/03 04:43:39;;;;;;;61.90;39.88;;;0.80;98.30;;;;;;5142418;23;20208;-80
2020/12/03 04:45:44;;;;;;;60.45;40.33;;;0.90;98.30;;;;;;5150250;23;20228;-81
2020/12/03 04:48:02;;;;;;;68.45;42.70;;;0.90;98.30;;;;;;5141098;23;20212;-80
2020/12/03 04:50:16;;;;;;;65.38;40.05;;;0.90;98.30;;;;;;5141871;23;20218;-81
2020/12/03 04:53:02;;;;;;;63.00;39.83;;;0.80;98.30;;;;;;5142270;23;20604;-82
2020/12/03 04:55:16;;;;;;;60.28;40.40;;;0.80;98.30;;;;;;5149467;23;20232;-80
2020/12/03 04:57:26;;;;;;;66.20;41.67;;;0.90;98.30;;;;;;5149214;23;20209;-79
2020/12/03 04:59:54;;;;;;;61.08;39.20;;;0.90;98.30;;;;;;5148791;23;20233;-79
2020/12/03 05:02:28;;;;;;;60.95;40.97;;;0.80;98.30;;;;;;5149217;23;20208;-79
2020/12/03 05:04:40;;;;;;;57.70;38.28;;;0.80;98.30;;;;;;5148994;23;20214;-79
2020/12/03 05:06:54;;;;;;;57.08;38.70;;;0.80;98.30;;;;;;5149260;23;20228;-79
2020/12/03 05:09:00;;;;;;;61.05;39.28;;;0.70;98.30;;;;;;5149321;23;20201;-80
2020/12/03 05:11:07;;;;;;;65.90;41.22;;;0.70;98.30;;;;;;5141152;23;20231;-79
2020/12/03 05:13:19;;;;;;;57.78;39.47;;;0.70;98.30;;;;;;5140964;23;20208;-80
2020/12/03 05:15:24;;;;;;;60.72;39.13;;;0.80;98.30;;;;;;5141061;23;20232;-80
2020/12/03 05:17:42;;;;;;;61.13;40.28;;;0.80;98.30;;;;;;5151214;23;20220;-78
2020/12/03 05:19:59;;;;;;;60.97;39.35;;;0.90;98.30;;;;;;5150529;23;20193;-79
2020/12/03 05:22:15;;;;;;;64.07;39.47;;;0.80;98.30;;;;;;5150583;23;20217;-79
2020/12/03 05:24:17;;;;;;;66.25;41.17;;;0.80;98.30;;;;;;5150512;23;20212;-79
2020/12/03 05:26:22;;;;;;;63.33;40.85;;;0.90;98.30;;;;;;5150249;23;20197;-80
2020/12/03 05:28:50;;;;;;;60.70;39.58;;;0.80;98.30;;;;;;5142607;23;20209;-79
2020/12/03 05:30:55;;;;;;;54.30;37.65;;;0.80;98.30;;;;;;5142803;23;20210;-80
2020/12/03 05:32:58;;;;;;;60.85;38.13;;;0.90;98.30;;;;;;5143004;23;20291;-80
2020/12/03 05:35:01;;;;;;;61.67;38.75;;;0.80;98.30;;;;;;5150490;23;20549;-79
2020/12/03 05:37:06;;;;;;;62.08;39.65;;;0.70;98.30;;;;;;5141790;23;20300;-80
2020/12/03 05:39:13;;;;;;;60.35;39.88;;;0.70;98.30;;;;;;5154594;23;20239;-80
2020/12/03 05:41:18;;;;;;;56.50;38.72;;;0.80;98.30;;;;;;5154524;23;20211;-79
2020/12/03 05:43:21;;;;;;;59.13;39.72;;;0.80;98.30;;;;;;5154673;23;20782;-80
2020/12/03 05:45:29;;;;;;;65.82;42.72;;;0.80;98.30;;;;;;5154912;23;20209;-81
2020/12/03 05:47:33;;;;;;;58.58;37.80;;;0.70;98.30;;;;;;5146102;23;20205;-81
2020/12/03 05:49:41;;;;;;;62.75;41.10;;;0.80;98.30;;;;;;5145603;23;20232;-80
2020/12/03 05:51:44;;;;;;;63.13;39.70;;;0.90;98.30;;;;;;5154789;23;20204;-81
2020/12/03 05:53:54;;;;;;;56.70;37.40;;;0.80;98.30;;;;;;5146578;23;20233;-81
2020/12/03 05:56:12;;;;;;;63.17;39.63;;;0.80;98.30;;;;;;5152413;23;20239;-80
2020/12/03 05:58:21;;;;;;;62.80;40.17;;;0.80;98.30;;;;;;5142483;23;20206;-81
2020/12/03 06:00:25;;;;;;;62.50;39.60;;;0.80;98.30;;;;;;5142720;23;20288;-81
2020/12/03 06:02:39;;;;;;;63.40;40.45;;;0.70;98.30;;;;;;5151593;23;20216;-80
2020/12/03 06:04:47;;;;;;;60.25;38.28;;;0.70;98.30;;;;;;5151849;23;20745;-81
2020/12/03 06:07:12;;;;;;;59.67;38.20;;;0.70;98.30;;;;;;5152675;23;20211;-81
2020/12/03 06:09:27;;;;;;;62.78;39.35;;;0.70;98.30;;;;;;5150686;23;20201;-81
2020/12/03 06:11:47;;;;;;;60.20;38.30;;;0.70;98.30;;;;;;5143313;23;20205;-80
2020/12/03 06:14:16;;;;;;;60.20;39.05;;;0.70;98.30;;;;;;5151387;23;20223;-80
2020/12/03 06:16:31;;;;;;;62.20;40.08;;;0.70;98.30;;;;;;5142006;23;21023;-80
2020/12/03 06:19:09;;;;;;;62.83;40.85;;;0.70;98.30;;;;;;5141728;23;20202;-80
2020/12/03 06:21:29;;;;;;;60.25;40.65;;;0.70;98.30;;;;;;5111860;23;20236;-80
2020/12/03 06:23:50;;;;;;;60.17;39.35;;;0.80;98.30;;;;;;5142983;23;20205;-80
2020/12/03 06:26:02;;;;;;;58.67;38.10;;;0.70;98.30;;;;;;5143429;23;20241;-81
2020/12/03 06:28:30;;;;;;;62.25;40.05;;;0.70;98.30;;;;;;5142965;23;20208;-80
2020/12/03 06:30:37;;;;;;;61.30;38.10;;;0.70;98.30;;;;;;5145265;23;20205;-81
2020/12/03 06:32:56;;;;;;;55.75;37.60;;;0.60;98.30;;;;;;5142961;23;20216;-80
2020/12/03 06:35:03;;;;;;;58.55;38.45;;;0.60;98.30;;;;;;5151697;23;20263;-80
2020/12/03 06:37:16;;;;;;;54.22;36.45;;;0.70;98.30;;;;;;5151985;23;20207;-81
2020/12/03 06:39:41;;;;;;;57.22;36.38;;;0.80;98.30;;;;;;5142929;23;20262;-80
2020/12/03 06:41:51;;;;;;;59.65;38.20;;;0.80;98.30;;;;;;5151488;23;20239;-80
2020/12/03 06:44:00;;;;;;;65.20;38.83;;;0.70;98.30;;;;;;5150079;23;20201;-80
2020/12/03 06:46:40;;;;;;;63.75;41.35;;;0.70;98.30;;;;;;5141797;23;20207;-80
2020/12/03 06:49:01;;;;;;;64.45;39.60;;;0.70;98.30;;;;;;5092120;23;20255;-80
2020/12/03 06:51:37;;;;;;;59.90;39.85;;;0.60;98.30;;;;;;5142135;23;20212;-80
2020/12/03 06:54:05;;;;;;;57.10;38.15;;;0.70;98.30;;;;;;5150569;23;20202;-79
2020/12/03 06:56:40;;;;;;;66.18;40.63;;;0.70;98.30;;;;;;5150548;23;20269;-80
2020/12/03 06:59:10;;;;;;;63.42;38.75;;;0.70;98.30;;;;;;5149862;23;20204;-81
2020/12/03 07:01:40;;;;;;;68.63;43.28;;;0.70;98.30;;;;;;5149228;23;20207;-80
2020/12/03 07:04:36;;;;;;;61.38;37.80;;;0.70;98.30;;;;;;5149819;23;20942;-81
2020/12/03 07:07:14;;;;;;;63.25;40.58;;;0.60;98.30;;;;;;5040856;23;20219;-80
2020/12/03 07:09:43;;;;;;;67.50;41.08;;;0.60;98.30;;;;;;5048535;23;20240;-80
2020/12/03 07:12:06;;;;;;;62.58;41.13;;;0.60;98.30;;;;;;5087948;23;20331;-81
2020/12/03 07:15:21;;;;;;;62.03;40.20;;;0.60;98.30;;;;;;5150700;23;20229;-80
2020/12/03 07:17:53;;;;;;;67.25;40.72;;;0.70;98.30;;;;;;5150762;23;20216;-80
2020/12/03 07:20:21;;;;;;;67.25;42.00;;;0.70;98.30;;;;;;5150831;23;20631;-80
2020/12/03 07:22:27;;;;;;;65.47;40.80;;;0.60;98.30;;;;;;5150982;23;20276;-80
2020/12/03 07:24:32;;;;;;;62.10;39.00;;;0.60;98.30;;;;;;5142190;23;20208;-80
2020/12/03 07:26:47;;;;;;;63.40;39.70;;;0.70;98.30;;;;;;5142173;23;20260;-80
2020/12/03 07:28:55;;;;;;;63.42;41.40;;;0.70;98.30;;;;;;5142000;23;20719;-80
2020/12/03 07:31:00;;;;;;;63.97;40.15;;;0.70;98.30;;;;;;5149757;23;20574;-80
2020/12/03 07:33:05;;;;;;;67.25;43.35;;;0.70;98.30;;;;;;5142228;23;20209;-80
2020/12/03 07:35:19;;;;;;;56.83;38.17;;;0.80;98.30;;;;;;5150190;23;20206;-81
2020/12/03 07:37:36;;;;;;;66.40;41.53;;;0.70;98.30;;;;;;5142100;23;20251;-81
2020/12/03 07:39:38;;;;;;;65.10;39.55;;;0.70;98.30;;;;;;5150453;23;20204;-81
2020/12/03 07:41:49;;;;;;;61.83;37.75;;;0.70;98.30;;;;;;5142475;23;20215;-81
2020/12/03 07:44:06;;;;;;;62.50;41.08;;;0.70;98.30;;;;;;5142930;23;20289;-81
2020/12/03 07:46:36;;;;;;;56.75;37.75;;;0.70;98.30;;;;;;5150179;23;20238;-82
2020/12/03 07:48:45;;;;;;;66.80;41.25;;;0.70;98.30;;;;;;5149418;23;20208;-80
2020/12/03 07:51:06;;;;;;;59.63;40.15;;;0.80;98.30;;;;;;5149484;23;20225;-80
2020/12/03 07:53:20;;;;;;;63.85;38.33;;;0.70;98.30;;;;;;5137508;23;20224;-80
2020/12/03 07:55:29;;;;;;;61.78;40.30;;;0.70;98.30;;;;;;5141175;23;20201;-81
2020/12/03 07:57:50;;;;;;;65.25;40.00;;;0.70;98.30;;;;;;5149260;23;20283;-80
2020/12/03 07:59:53;;;;;;;71.47;42.42;;;0.70;98.30;;;;;;5148822;23;20214;-81
2020/12/03 08:01:56;;;;;;;64.50;38.63;;;0.70;98.30;;;;;;5149353;23;20726;-80
2020/12/03 08:03:58;;;;;;;62.20;38.78;;;0.70;98.30;;;;;;5149574;23;20212;-80
2020/12/03 08:06:25;;;;;;;64.40;39.30;;;0.60;98.30;;;;;;5141801;23;20235;-81
2020/12/03 08:08:35;;;;;;;66.80;41.40;;;0.50;98.30;;;;;;5151473;23;20204;-81
2020/12/03 08:10:38;;;;;;;64.82;40.72;;;0.60;98.30;;;;;;5142265;23;20217;-81
2020/12/03 08:13:07;;;;;;;60.53;40.42;;;0.60;98.30;;;;;;5150886;23;20201;-81
2020/12/03 08:15:33;;;;;;;68.93;41.70;;;0.60;98.30;;;;;;5150985;23;20284;-81
2020/12/03 08:17:45;;;;;;;67.78;41.15;;;0.60;98.30;;;;;;5151294;23;20204;-81
2020/12/03 08:20:10;;;;;;;69.72;41.30;;;0.70;98.30;;;;;;5142076;23;20305;-81
2020/12/03 08:22:23;;;;;;;66.90;39.92;;;0.70;98.30;;;;;;5142879;23;20219;-80
2020/12/03 08:24:26;;;;;;;62.95;40.28;;;0.70;98.30;;;;;;5141886;23;20207;-81
2020/12/03 08:26:29;;;;;;;58.63;39.67;;;0.70;98.30;;;;;;5151029;23;20215;-81
2020/12/03 08:28:32;;;;;;;61.13;39.55;;;0.70;98.30;;;;;;5149797;23;20224;-81
2020/12/03 08:30:37;;;;;;;64.22;39.13;;;0.70;98.30;;;;;;5149945;23;20202;-80
2020/12/03 08:32:59;;;;;;;67.32;39.45;;;0.70;98.30;;;;;;5142069;23;20204;-81
2020/12/03 08:35:01;;;;;;;67.28;41.00;;;0.70;98.30;;;;;;5149689;23;20915;-81
2020/12/03 08:37:05;;;;;;;62.40;40.53;;;0.70;98.30;;;;;;5142562;23;20718;-81
2020/12/03 08:39:07;;;;;;;58.03;37.75;;;0.70;98.30;;;;;;5149857;23;20200;-81
2020/12/03 08:41:14;;;;;;;64.18;41.30;;;0.60;98.30;;;;;;5149857;23;20277;-81
2020/12/03 08:43:17;;;;;;;64.90;38.95;;;0.70;98.30;;;;;;5150541;23;20866;-81
2020/12/03 08:45:19;;;;;;;64.28;40.45;;;0.70;98.30;;;;;;5141792;23;20254;-81
2020/12/03 08:47:34;;;;;;;66.57;39.25;;;0.70;98.30;;;;;;5149938;23;20275;-81
2020/12/03 08:49:41;;;;;;;65.05;41.33;;;0.70;98.30;;;;;;5142246;23;20291;-81
2020/12/03 08:51:48;;;;;;;63.88;38.95;;;0.70;98.30;;;;;;5152053;23;20263;-81
2020/12/03 08:53:51;;;;;;;65.85;39.17;;;0.70;98.30;;;;;;5152160;23;20290;-81
2020/12/03 08:55:53;;;;;;;65.35;39.65;;;0.70;98.30;;;;;;5151692;23;20215;-81
2020/12/03 08:57:57;;;;;;;64.88;39.63;;;0.70;98.30;;;;;;5144075;23;20248;-81
2020/12/03 09:00:00;;;;;;;59.72;37.97;;;0.80;98.30;;;;;;5153387;23;20202;-81
2020/12/03 09:02:08;;;;;;;60.63;37.50;;;0.70;98.30;;;;;;5151162;23;20230;-81
2020/12/03 09:04:10;;;;;;;64.38;39.60;;;0.80;98.30;;;;;;5142912;23;20205;-81
2020/12/03 09:06:14;;;;;;;62.85;39.22;;;0.80;98.30;;;;;;5151711;23;20208;-81
2020/12/03 09:08:19;;;;;;;63.13;38.50;;;0.80;98.30;;;;;;5143248;23;20244;-81
2020/12/03 09:10:22;;;;;;;63.03;40.25;;;0.70;98.30;;;;;;5151838;23;20206;-81
2020/12/03 09:12:28;;;;;;;61.42;38.83;;;0.70;98.30;;;;;;5151695;23;20667;-81
2020/12/03 09:14:34;;;;;;;65.63;39.22;;;0.80;98.30;;;;;;5143589;23;20257;-81
2020/12/03 09:16:37;;;;;;;58.65;39.05;;;0.90;98.30;;;;;;5151628;23;20283;-81
2020/12/03 09:18:42;;;;;;;61.95;38.45;;;0.90;98.30;;;;;;5143451;23;20701;-81
2020/12/03 09:20:45;;;;;;;65.50;41.17;;;0.80;98.30;;;;;;5151581;23;20531;-81
2020/12/03 09:22:48;;;;;;;60.78;39.28;;;0.90;98.30;;;;;;5151533;23;20206;-81
2020/12/03 09:24:51;;;;;;;61.05;39.55;;;0.80;98.30;;;;;;5151215;23;20212;-81
2020/12/03 09:26:56;;;;;;;62.67;40.50;;;0.90;98.30;;;;;;5150994;23;20221;-80
2020/12/03 09:28:59;;;;;;;71.88;41.90;;;0.80;98.30;;;;;;5142674;23;20681;-81
2020/12/03 09:31:01;;;;;;;60.60;37.50;;;0.90;98.30;;;;;;5143260;23;20216;-81
2020/12/03 09:33:06;;;;;;;62.30;37.70;;;0.90;98.30;;;;;;5151127;23;20205;-81
2020/12/03 09:35:09;;;;;;;57.70;36.90;;;0.90;98.30;;;;;;5151610;23;20233;-81
2020/12/03 09:37:12;;;;;;;57.22;36.90;;;0.90;98.30;;;;;;5151272;23;20658;-81
2020/12/03 09:39:18;;;;;;;72.03;41.13;;;0.80;98.30;;;;;;5151347;23;20229;-82
2020/12/03 09:41:21;;;;;;;68.57;41.50;;;0.90;98.30;;;;;;5151510;23;20598;-82
2020/12/03 09:43:25;;;;;;;58.13;38.53;;;0.90;98.30;;;;;;5151217;23;20822;-81
2020/12/03 09:45:33;;;;;;;64.28;40.92;;;0.90;98.30;;;;;;5151858;23;20220;-82
2020/12/03 09:47:36;;;;;;;65.40;39.13;;;0.90;98.30;;;;;;5151694;23;20871;-82
2020/12/03 09:49:42;;;;;;;66.10;37.13;;;0.90;98.30;;;;;;5151765;23;20586;-81
2020/12/03 09:51:45;;;;;;;60.05;36.75;;;0.90;98.30;;;;;;5151576;23;20217;-81
2020/12/03 09:53:48;;;;;;;63.30;37.88;;;1.00;98.30;;;;;;5151368;23;20289;-81
2020/12/03 09:55:51;;;;;;;62.70;37.35;;;0.90;98.30;;;;;;5142772;23;20260;-82
2020/12/03 09:57:55;;;;;;;64.68;40.45;;;1.00;98.30;;;;;;5142883;23;20242;-81
2020/12/03 10:00:00;;;;;;;64.30;38.83;;;1.00;98.30;;;;;;5143240;23;20669;-81
2020/12/03 10:02:24;;;;;;;57.88;37.60;;;1.00;98.30;;;;;;5151418;23;20243;-81
2020/12/03 10:04:55;;;;;;;60.65;39.70;;;1.00;98.30;;;;;;5144217;23;20284;-82
2020/12/03 10:07:08;;;;;;;62.55;38.55;;;0.90;98.30;;;;;;5153269;23;20220;-82
2020/12/03 10:09:28;;;;;;;63.33;37.25;;;0.90;98.30;;;;;;5152387;23;20213;-82
2020/12/03 10:12:06;;;;;;;60.33;38.50;;;0.90;98.30;;;;;;5151967;23;20217;-82
2020/12/03 10:14:36;;;;;;;64.05;38.63;;;1.00;98.30;;;;;;5152078;23;20202;-82
2020/12/03 10:16:43;;;;;;;63.58;39.47;;;1.00;98.30;;;;;;5150064;23;20210;-81
2020/12/03 10:18:50;;;;;;;65.00;39.42;;;1.00;98.30;;;;;;5150368;23;20235;-81
2020/12/03 10:20:54;;;;;;;57.83;37.13;;;1.00;98.30;;;;;;5149764;23;20199;-81
2020/12/03 10:23:13;;;;;;;59.80;39.88;;;1.10;98.30;;;;;;5150107;23;20812;-81
2020/12/03 10:25:18;;;;;;;66.53;37.80;;;1.10;98.30;;;;;;5142135;23;20533;-81
2020/12/03 10:27:25;;;;;;;60.35;38.70;;;1.20;98.30;;;;;;5141884;23;20208;-82
2020/12/03 10:29:45;;;;;;;63.88;37.63;;;1.20;98.30;;;;;;5141479;23;20205;-81
2020/12/03 10:31:48;;;;;;;68.57;38.65;;;1.20;98.30;;;;;;5150265;23;20197;-81
2020/12/03 10:33:51;;;;;;;61.55;38.42;;;1.20;98.30;;;;;;5150653;23;20201;-81
2020/12/03 10:35:58;;;;;;;62.45;38.78;;;1.30;98.30;;;;;;5149936;23;20251;-81
2020/12/03 10:38:04;;;;;;;60.53;36.67;;;1.30;98.30;;;;;;5141584;23;20209;-81
2020/12/03 10:40:15;;;;;;;60.45;38.00;;;1.30;98.30;;;;;;5149639;23;20268;-81
2020/12/03 10:42:19;;;;;;;56.75;36.42;;;1.20;98.30;;;;;;5150292;23;20202;-81
2020/12/03 10:44:26;;;;;;;58.45;36.42;;;1.20;98.30;;;;;;5141583;23;20257;-81
2020/12/03 10:46:37;;;;;;;59.63;36.90;;;1.20;98.30;;;;;;5150365;23;20203;-81
2020/12/03 10:48:43;;;;;;;54.55;37.53;;;1.10;98.30;;;;;;5149578;23;20240;-81
2020/12/03 10:50:54;;;;;;;56.65;35.25;;;1.20;98.30;;;;;;5141786;23;20213;-82
2020/12/03 10:52:56;;;;;;;57.88;36.00;;;1.20;98.30;;;;;;5151068;23;20201;-81
2020/12/03 10:55:01;;;;;;;57.97;35.10;;;1.30;98.30;;;;;;5142539;23;20214;-81
2020/12/03 10:57:05;;;;;;;57.58;36.63;;;1.30;98.30;;;;;;5150359;23;20309;-82